sensor_id;sensor_type;location;lat;lon;timestamp;temperature;humidity
14511;DHT22;7341;50.930;4.038;2022-10-16T00:01:07;14.20;99.90
14511;DHT22;7341;50.930;4.038;2022-10-16T00:03:37;14.20;99.90
14511;DHT22;7341;50.930;4.038;2022-10-16T00:06:05;14.20;99.90
14511;DHT22;7341;50.930;4.038;2022-10-16T00:08:33;14.20;99.90
14511;DHT22;7341;50.930;4.038;2022-10-16T00:11:01;14.10;99.90
14511;DHT22;7341;50.930;4.038;2022-10-16T00:13:30;14.20;99.90
14511;DHT22;7341;50.930;4.038;2022-10-16T00:16:00;14.10;99.90
14511;DHT22;7341;50.930;4.038;2022-10-16T00:18:28;14.20;99.90
14511;DHT22;7341;50.930;4.038;2022-10-16T00:21:01;14.10;99.90
14511;DHT22;7341;50.930;4.038;2022-10-16T00:23:31;14.10;99.90
14511;DHT22;7341;50.930;4.038;2022-10-16T00:26:01;14.10;99.90
14511;DHT22;7341;50.930;4.038;2022-10-16T00:28:28;14.10;99.90
14511;DHT22;7341;50.930;4.038;2022-10-16T00:30:56;14.10;99.90
14511;DHT22;7341;50.930;4.038;2022-10-16T00:33:24;14.10;99.90
14511;DHT22;7341;50.930;4.038;2022-10-16T00:35:51;14.10;99.90
14511;DHT22;7341;50.930;4.038;2022-10-16T00:38:18;14.10;99.90
14511;DHT22;7341;50.930;4.038;2022-10-16T00:40:45;14.10;99.90
14511;DHT22;7341;50.930;4.038;2022-10-16T00:43:31;14.10;99.90
14511;DHT22;7341;50.930;4.038;2022-10-16T00:46:03;14.10;99.90
14511;DHT22;7341;50.930;4.038;2022-10-16T00:48:38;14.00;99.90
14511;DHT22;7341;50.930;4.038;2022-10-16T00:51:07;14.00;99.90
14511;DHT22;7341;50.930;4.038;2022-10-16T00:53:40;14.00;99.90
14511;DHT22;7341;50.930;4.038;2022-10-16T00:56:06;14.00;99.90
14511;DHT22;7341;50.930;4.038;2022-10-16T00:58:36;14.00;99.90
14511;DHT22;7341;50.930;4.038;2022-10-16T01:01:03;14.00;99.90
14511;DHT22;7341;50.930;4.038;2022-10-16T01:03:32;13.90;99.90
14511;DHT22;7341;50.930;4.038;2022-10-16T01:06:22;14.00;99.90
14511;DHT22;7341;50.930;4.038;2022-10-16T01:09:13;13.90;99.90
14511;DHT22;7341;50.930;4.038;2022-10-16T01:11:52;13.90;99.90
14511;DHT22;7341;50.930;4.038;2022-10-16T01:14:31;13.90;99.90
14511;DHT22;7341;50.930;4.038;2022-10-16T01:17:05;14.00;99.90
14511;DHT22;7341;50.930;4.038;2022-10-16T01:20:00;13.90;99.90
14511;DHT22;7341;50.930;4.038;2022-10-16T01:22:36;13.80;99.90
14511;DHT22;7341;50.930;4.038;2022-10-16T01:25:11;13.90;99.90
14511;DHT22;7341;50.930;4.038;2022-10-16T01:27:46;13.80;99.90
14511;DHT22;7341;50.930;4.038;2022-10-16T01:30:16;13.80;99.90
14511;DHT22;7341;50.930;4.038;2022-10-16T01:32:48;13.80;99.90
14511;DHT22;7341;50.930;4.038;2022-10-16T01:35:21;13.90;99.90
14511;DHT22;7341;50.930;4.038;2022-10-16T01:37:52;13.90;99.90
14511;DHT22;7341;50.930;4.038;2022-10-16T01:40:21;13.80;99.90
14511;DHT22;7341;50.930;4.038;2022-10-16T01:42:53;13.80;99.90
14511;DHT22;7341;50.930;4.038;2022-10-16T01:45:24;13.80;99.90
14511;DHT22;7341;50.930;4.038;2022-10-16T01:47:52;13.80;99.90
14511;DHT22;7341;50.930;4.038;2022-10-16T01:50:34;13.80;99.90
14511;DHT22;7341;50.930;4.038;2022-10-16T01:53:03;13.90;99.90
14511;DHT22;7341;50.930;4.038;2022-10-16T01:55:40;13.80;99.90
14511;DHT22;7341;50.930;4.038;2022-10-16T01:58:13;13.70;99.90
14511;DHT22;7341;50.930;4.038;2022-10-16T02:00:43;13.80;99.90
14511;DHT22;7341;50.930;4.038;2022-10-16T02:03:12;13.70;99.90
14511;DHT22;7341;50.930;4.038;2022-10-16T02:05:45;13.90;99.90
14511;DHT22;7341;50.930;4.038;2022-10-16T02:08:19;13.80;99.90
14511;DHT22;7341;50.930;4.038;2022-10-16T02:10:46;13.90;99.90
14511;DHT22;7341;50.930;4.038;2022-10-16T02:13:24;13.80;99.90
14511;DHT22;7341;50.930;4.038;2022-10-16T02:15:52;13.70;99.90
14511;DHT22;7341;50.930;4.038;2022-10-16T02:18:26;13.80;99.90
14511;DHT22;7341;50.930;4.038;2022-10-16T02:20:57;13.80;99.90
14511;DHT22;7341;50.930;4.038;2022-10-16T02:23:33;13.70;99.90
14511;DHT22;7341;50.930;4.038;2022-10-16T02:26:05;13.70;99.90
14511;DHT22;7341;50.930;4.038;2022-10-16T02:28:40;13.60;99.90
14511;DHT22;7341;50.930;4.038;2022-10-16T02:31:11;13.70;99.90
14511;DHT22;7341;50.930;4.038;2022-10-16T02:33:39;13.70;99.90
14511;DHT22;7341;50.930;4.038;2022-10-16T02:36:08;13.60;99.90
14511;DHT22;7341;50.930;4.038;2022-10-16T02:38:36;13.70;99.90
14511;DHT22;7341;50.930;4.038;2022-10-16T02:41:04;13.60;99.90
14511;DHT22;7341;50.930;4.038;2022-10-16T02:43:31;13.70;99.90
14511;DHT22;7341;50.930;4.038;2022-10-16T02:46:00;13.60;99.90
14511;DHT22;7341;50.930;4.038;2022-10-16T02:48:30;13.70;99.90
14511;DHT22;7341;50.930;4.038;2022-10-16T02:51:17;13.70;99.90
14511;DHT22;7341;50.930;4.038;2022-10-16T02:53:45;13.70;99.90
14511;DHT22;7341;50.930;4.038;2022-10-16T02:56:12;13.60;99.90
14511;DHT22;7341;50.930;4.038;2022-10-16T02:58:39;13.60;99.90
14511;DHT22;7341;50.930;4.038;2022-10-16T03:01:12;13.60;99.90
14511;DHT22;7341;50.930;4.038;2022-10-16T03:03:43;13.60;99.90
14511;DHT22;7341;50.930;4.038;2022-10-16T03:06:09;13.60;99.90
14511;DHT22;7341;50.930;4.038;2022-10-16T03:08:39;13.60;99.90
14511;DHT22;7341;50.930;4.038;2022-10-16T03:11:06;13.60;99.90
14511;DHT22;7341;50.930;4.038;2022-10-16T03:13:35;13.60;99.90
14511;DHT22;7341;50.930;4.038;2022-10-16T03:16:04;13.60;99.90
14511;DHT22;7341;50.930;4.038;2022-10-16T03:18:32;13.60;99.90
14511;DHT22;7341;50.930;4.038;2022-10-16T03:21:01;13.60;99.90
14511;DHT22;7341;50.930;4.038;2022-10-16T03:23:31;13.60;99.90
14511;DHT22;7341;50.930;4.038;2022-10-16T03:26:00;13.60;99.90
14511;DHT22;7341;50.930;4.038;2022-10-16T03:28:27;13.60;99.90
14511;DHT22;7341;50.930;4.038;2022-10-16T03:30:54;13.60;99.90
14511;DHT22;7341;50.930;4.038;2022-10-16T03:33:20;13.60;99.90
14511;DHT22;7341;50.930;4.038;2022-10-16T03:35:51;13.60;99.90
14511;DHT22;7341;50.930;4.038;2022-10-16T03:38:19;13.60;99.90
14511;DHT22;7341;50.930;4.038;2022-10-16T03:40:46;13.60;99.90
14511;DHT22;7341;50.930;4.038;2022-10-16T03:43:18;13.60;99.90
14511;DHT22;7341;50.930;4.038;2022-10-16T03:45:44;13.60;99.90
14511;DHT22;7341;50.930;4.038;2022-10-16T03:48:11;13.70;99.90
14511;DHT22;7341;50.930;4.038;2022-10-16T03:50:38;13.70;99.90
14511;DHT22;7341;50.930;4.038;2022-10-16T03:53:11;13.60;99.90
14511;DHT22;7341;50.930;4.038;2022-10-16T03:55:38;13.60;99.90
14511;DHT22;7341;50.930;4.038;2022-10-16T03:58:05;13.60;99.90
14511;DHT22;7341;50.930;4.038;2022-10-16T04:00:33;13.60;99.90
14511;DHT22;7341;50.930;4.038;2022-10-16T04:03:00;13.60;99.90
14511;DHT22;7341;50.930;4.038;2022-10-16T04:05:33;13.60;99.90
14511;DHT22;7341;50.930;4.038;2022-10-16T04:08:06;13.60;99.90
14511;DHT22;7341;50.930;4.038;2022-10-16T04:10:33;13.60;99.90
14511;DHT22;7341;50.930;4.038;2022-10-16T04:13:02;13.60;99.90
14511;DHT22;7341;50.930;4.038;2022-10-16T04:15:30;13.60;99.90
14511;DHT22;7341;50.930;4.038;2022-10-16T04:18:01;13.60;99.90
14511;DHT22;7341;50.930;4.038;2022-10-16T04:20:27;13.60;99.90
14511;DHT22;7341;50.930;4.038;2022-10-16T04:23:02;13.60;99.90
14511;DHT22;7341;50.930;4.038;2022-10-16T04:25:34;13.60;99.90
14511;DHT22;7341;50.930;4.038;2022-10-16T04:28:01;13.50;99.90
14511;DHT22;7341;50.930;4.038;2022-10-16T04:30:28;13.60;99.90
14511;DHT22;7341;50.930;4.038;2022-10-16T04:32:55;13.60;99.90
14511;DHT22;7341;50.930;4.038;2022-10-16T04:35:29;13.50;99.90
14511;DHT22;7341;50.930;4.038;2022-10-16T04:37:57;13.50;99.90
14511;DHT22;7341;50.930;4.038;2022-10-16T04:40:24;13.50;99.90
14511;DHT22;7341;50.930;4.038;2022-10-16T04:42:51;13.50;99.90
14511;DHT22;7341;50.930;4.038;2022-10-16T04:45:18;13.50;99.90
14511;DHT22;7341;50.930;4.038;2022-10-16T04:47:44;13.50;99.90
14511;DHT22;7341;50.930;4.038;2022-10-16T04:50:11;13.40;99.90
14511;DHT22;7341;50.930;4.038;2022-10-16T04:52:45;13.50;99.90
14511;DHT22;7341;50.930;4.038;2022-10-16T04:55:14;13.50;99.90
14511;DHT22;7341;50.930;4.038;2022-10-16T04:57:41;13.50;99.90
14511;DHT22;7341;50.930;4.038;2022-10-16T05:00:09;13.50;99.90
14511;DHT22;7341;50.930;4.038;2022-10-16T05:02:36;13.40;99.90
14511;DHT22;7341;50.930;4.038;2022-10-16T05:05:06;13.60;99.90
14511;DHT22;7341;50.930;4.038;2022-10-16T05:07:33;13.50;99.90
14511;DHT22;7341;50.930;4.038;2022-10-16T05:10:10;13.40;99.90
14511;DHT22;7341;50.930;4.038;2022-10-16T05:12:39;13.40;99.90
14511;DHT22;7341;50.930;4.038;2022-10-16T05:15:09;13.40;99.90
14511;DHT22;7341;50.930;4.038;2022-10-16T05:17:37;13.30;99.90
14511;DHT22;7341;50.930;4.038;2022-10-16T05:20:05;13.30;99.90
14511;DHT22;7341;50.930;4.038;2022-10-16T05:22:32;13.30;99.90
14511;DHT22;7341;50.930;4.038;2022-10-16T05:25:00;13.40;99.90
14511;DHT22;7341;50.930;4.038;2022-10-16T05:27:28;13.30;99.90
14511;DHT22;7341;50.930;4.038;2022-10-16T05:29:55;13.40;99.90
14511;DHT22;7341;50.930;4.038;2022-10-16T05:32:21;13.30;99.90
14511;DHT22;7341;50.930;4.038;2022-10-16T05:34:48;13.30;99.90
14511;DHT22;7341;50.930;4.038;2022-10-16T05:37:15;13.40;99.90
14511;DHT22;7341;50.930;4.038;2022-10-16T05:39:47;13.30;99.90
14511;DHT22;7341;50.930;4.038;2022-10-16T05:42:16;13.30;99.90
14511;DHT22;7341;50.930;4.038;2022-10-16T05:44:44;13.30;99.90
14511;DHT22;7341;50.930;4.038;2022-10-16T05:47:12;13.30;99.90
14511;DHT22;7341;50.930;4.038;2022-10-16T05:49:39;13.40;99.90
14511;DHT22;7341;50.930;4.038;2022-10-16T05:52:12;13.30;99.90
14511;DHT22;7341;50.930;4.038;2022-10-16T05:54:44;13.30;99.90
14511;DHT22;7341;50.930;4.038;2022-10-16T05:57:11;13.40;99.90
14511;DHT22;7341;50.930;4.038;2022-10-16T05:59:38;13.50;99.90
14511;DHT22;7341;50.930;4.038;2022-10-16T06:02:10;13.40;99.90
14511;DHT22;7341;50.930;4.038;2022-10-16T06:04:38;13.40;99.90
14511;DHT22;7341;50.930;4.038;2022-10-16T06:07:05;13.50;99.90
14511;DHT22;7341;50.930;4.038;2022-10-16T06:09:34;13.50;99.90
14511;DHT22;7341;50.930;4.038;2022-10-16T06:12:09;13.60;99.90
14511;DHT22;7341;50.930;4.038;2022-10-16T06:14:36;13.60;99.90
14511;DHT22;7341;50.930;4.038;2022-10-16T06:17:03;13.60;99.90
14511;DHT22;7341;50.930;4.038;2022-10-16T06:19:31;13.60;99.90
14511;DHT22;7341;50.930;4.038;2022-10-16T06:21:59;13.50;99.90
14511;DHT22;7341;50.930;4.038;2022-10-16T06:24:28;13.50;99.90
14511;DHT22;7341;50.930;4.038;2022-10-16T06:26:54;13.60;99.90
14511;DHT22;7341;50.930;4.038;2022-10-16T06:29:22;13.60;99.90
14511;DHT22;7341;50.930;4.038;2022-10-16T06:31:49;13.60;99.90
14511;DHT22;7341;50.930;4.038;2022-10-16T06:34:16;13.60;99.90
14511;DHT22;7341;50.930;4.038;2022-10-16T06:36:44;13.60;99.90
14511;DHT22;7341;50.930;4.038;2022-10-16T06:39:11;13.60;99.90
14511;DHT22;7341;50.930;4.038;2022-10-16T06:41:38;13.70;99.90
14511;DHT22;7341;50.930;4.038;2022-10-16T06:44:06;13.60;99.90
14511;DHT22;7341;50.930;4.038;2022-10-16T06:46:35;13.60;99.90
14511;DHT22;7341;50.930;4.038;2022-10-16T06:49:02;13.60;99.90
14511;DHT22;7341;50.930;4.038;2022-10-16T06:51:29;13.60;99.90
14511;DHT22;7341;50.930;4.038;2022-10-16T06:54:00;13.50;99.90
14511;DHT22;7341;50.930;4.038;2022-10-16T06:56:28;13.40;99.90
14511;DHT22;7341;50.930;4.038;2022-10-16T06:58:55;13.40;99.90
14511;DHT22;7341;50.930;4.038;2022-10-16T07:01:23;13.40;99.90
14511;DHT22;7341;50.930;4.038;2022-10-16T07:03:50;13.50;99.90
14511;DHT22;7341;50.930;4.038;2022-10-16T07:06:18;13.50;99.90
14511;DHT22;7341;50.930;4.038;2022-10-16T07:08:46;13.50;99.90
14511;DHT22;7341;50.930;4.038;2022-10-16T07:11:17;13.50;99.90
14511;DHT22;7341;50.930;4.038;2022-10-16T07:13:48;13.60;99.90
14511;DHT22;7341;50.930;4.038;2022-10-16T07:16:18;13.60;99.90
14511;DHT22;7341;50.930;4.038;2022-10-16T07:18:46;13.60;99.90
14511;DHT22;7341;50.930;4.038;2022-10-16T07:21:16;13.70;99.90
14511;DHT22;7341;50.930;4.038;2022-10-16T07:23:45;13.70;99.90
14511;DHT22;7341;50.930;4.038;2022-10-16T07:26:12;13.80;99.90
14511;DHT22;7341;50.930;4.038;2022-10-16T07:28:42;13.90;99.90
14511;DHT22;7341;50.930;4.038;2022-10-16T07:31:11;14.00;99.90
14511;DHT22;7341;50.930;4.038;2022-10-16T07:33:39;13.90;99.90
14511;DHT22;7341;50.930;4.038;2022-10-16T07:36:07;14.00;99.90
14511;DHT22;7341;50.930;4.038;2022-10-16T07:38:34;14.00;99.90
14511;DHT22;7341;50.930;4.038;2022-10-16T07:41:03;14.00;99.90
14511;DHT22;7341;50.930;4.038;2022-10-16T07:43:30;14.10;99.90
14511;DHT22;7341;50.930;4.038;2022-10-16T07:45:59;14.10;99.90
14511;DHT22;7341;50.930;4.038;2022-10-16T07:48:30;14.20;99.90
14511;DHT22;7341;50.930;4.038;2022-10-16T07:50:57;14.30;99.90
14511;DHT22;7341;50.930;4.038;2022-10-16T07:53:25;14.30;99.90
14511;DHT22;7341;50.930;4.038;2022-10-16T07:55:52;14.30;99.90
14511;DHT22;7341;50.930;4.038;2022-10-16T07:58:21;14.30;99.90
14511;DHT22;7341;50.930;4.038;2022-10-16T08:00:47;14.40;99.90
14511;DHT22;7341;50.930;4.038;2022-10-16T08:03:16;14.40;99.90
14511;DHT22;7341;50.930;4.038;2022-10-16T08:05:42;14.40;99.90
14511;DHT22;7341;50.930;4.038;2022-10-16T08:08:12;14.50;99.90
14511;DHT22;7341;50.930;4.038;2022-10-16T08:10:39;14.60;99.90
14511;DHT22;7341;50.930;4.038;2022-10-16T08:13:06;14.60;99.90
14511;DHT22;7341;50.930;4.038;2022-10-16T08:15:33;14.70;99.90
14511;DHT22;7341;50.930;4.038;2022-10-16T08:18:01;14.70;99.90
14511;DHT22;7341;50.930;4.038;2022-10-16T08:20:31;14.80;99.90
14511;DHT22;7341;50.930;4.038;2022-10-16T08:22:59;14.80;99.90
14511;DHT22;7341;50.930;4.038;2022-10-16T08:25:26;14.90;99.90
14511;DHT22;7341;50.930;4.038;2022-10-16T08:27:53;14.90;99.90
14511;DHT22;7341;50.930;4.038;2022-10-16T08:30:21;15.00;99.90
14511;DHT22;7341;50.930;4.038;2022-10-16T08:32:49;15.10;99.90
14511;DHT22;7341;50.930;4.038;2022-10-16T08:35:16;15.10;99.90
14511;DHT22;7341;50.930;4.038;2022-10-16T08:37:44;15.30;99.90
14511;DHT22;7341;50.930;4.038;2022-10-16T08:40:17;15.30;99.90
14511;DHT22;7341;50.930;4.038;2022-10-16T08:45:51;15.30;99.90
14511;DHT22;7341;50.930;4.038;2022-10-16T08:48:29;15.40;99.90
14511;DHT22;7341;50.930;4.038;2022-10-16T08:50:57;15.50;99.90
14511;DHT22;7341;50.930;4.038;2022-10-16T08:53:28;15.50;99.90
14511;DHT22;7341;50.930;4.038;2022-10-16T08:55:56;15.50;99.90
14511;DHT22;7341;50.930;4.038;2022-10-16T08:58:27;15.60;99.90
14511;DHT22;7341;50.930;4.038;2022-10-16T09:00:57;15.70;99.90
14511;DHT22;7341;50.930;4.038;2022-10-16T09:03:37;15.70;99.90
14511;DHT22;7341;50.930;4.038;2022-10-16T09:06:15;15.70;99.90
14511;DHT22;7341;50.930;4.038;2022-10-16T09:08:55;15.70;99.90
14511;DHT22;7341;50.930;4.038;2022-10-16T09:11:32;15.80;99.90
14511;DHT22;7341;50.930;4.038;2022-10-16T09:14:11;15.90;99.90
14511;DHT22;7341;50.930;4.038;2022-10-16T09:16:46;15.80;99.90
14511;DHT22;7341;50.930;4.038;2022-10-16T09:19:20;15.90;99.90
14511;DHT22;7341;50.930;4.038;2022-10-16T09:21:49;16.00;99.90
14511;DHT22;7341;50.930;4.038;2022-10-16T09:24:20;16.20;99.90
14511;DHT22;7341;50.930;4.038;2022-10-16T09:26:47;16.30;99.90
14511;DHT22;7341;50.930;4.038;2022-10-16T09:29:15;16.30;99.90
14511;DHT22;7341;50.930;4.038;2022-10-16T09:31:42;16.20;99.90
14511;DHT22;7341;50.930;4.038;2022-10-16T09:34:17;16.40;99.90
14511;DHT22;7341;50.930;4.038;2022-10-16T09:36:47;16.30;99.90
14511;DHT22;7341;50.930;4.038;2022-10-16T09:39:14;16.30;99.90
14511;DHT22;7341;50.930;4.038;2022-10-16T09:41:44;16.40;99.90
14511;DHT22;7341;50.930;4.038;2022-10-16T09:44:19;16.50;99.90
14511;DHT22;7341;50.930;4.038;2022-10-16T09:46:47;16.60;99.90
14511;DHT22;7341;50.930;4.038;2022-10-16T09:49:22;16.70;99.90
14511;DHT22;7341;50.930;4.038;2022-10-16T09:51:50;16.60;99.90
14511;DHT22;7341;50.930;4.038;2022-10-16T09:54:20;16.70;99.90
14511;DHT22;7341;50.930;4.038;2022-10-16T09:56:49;16.70;99.90
14511;DHT22;7341;50.930;4.038;2022-10-16T09:59:18;16.70;99.90
14511;DHT22;7341;50.930;4.038;2022-10-16T10:01:47;16.70;99.90
14511;DHT22;7341;50.930;4.038;2022-10-16T10:04:15;16.60;99.90
14511;DHT22;7341;50.930;4.038;2022-10-16T10:06:44;16.70;99.90
14511;DHT22;7341;50.930;4.038;2022-10-16T10:09:18;16.80;99.90
14511;DHT22;7341;50.930;4.038;2022-10-16T10:11:50;16.90;99.90
14511;DHT22;7341;50.930;4.038;2022-10-16T10:14:21;17.10;99.90
14511;DHT22;7341;50.930;4.038;2022-10-16T10:16:49;17.00;99.90
14511;DHT22;7341;50.930;4.038;2022-10-16T10:19:17;17.00;99.90
14511;DHT22;7341;50.930;4.038;2022-10-16T10:21:44;17.00;99.90
14511;DHT22;7341;50.930;4.038;2022-10-16T10:24:12;17.10;99.90
14511;DHT22;7341;50.930;4.038;2022-10-16T10:26:49;17.10;99.90
14511;DHT22;7341;50.930;4.038;2022-10-16T10:29:24;17.20;99.90
14511;DHT22;7341;50.930;4.038;2022-10-16T10:32:02;17.20;99.90
14511;DHT22;7341;50.930;4.038;2022-10-16T10:34:53;17.40;99.90
14511;DHT22;7341;50.930;4.038;2022-10-16T10:37:42;17.40;99.90
14511;DHT22;7341;50.930;4.038;2022-10-16T10:40:23;17.60;99.90
14511;DHT22;7341;50.930;4.038;2022-10-16T10:42:59;17.80;99.90
14511;DHT22;7341;50.930;4.038;2022-10-16T10:45:38;17.90;99.90
14511;DHT22;7341;50.930;4.038;2022-10-16T10:48:31;17.90;99.90
14511;DHT22;7341;50.930;4.038;2022-10-16T10:51:04;17.90;99.90
14511;DHT22;7341;50.930;4.038;2022-10-16T10:53:39;17.80;99.90
14511;DHT22;7341;50.930;4.038;2022-10-16T10:56:19;17.80;99.90
14511;DHT22;7341;50.930;4.038;2022-10-16T11:01:58;18.10;99.90
14511;DHT22;7341;50.930;4.038;2022-10-16T11:07:22;18.10;99.90
14511;DHT22;7341;50.930;4.038;2022-10-16T11:09:55;18.10;99.90
14511;DHT22;7341;50.930;4.038;2022-10-16T11:12:40;18.10;99.90
14511;DHT22;7341;50.930;4.038;2022-10-16T11:15:21;18.10;99.90
14511;DHT22;7341;50.930;4.038;2022-10-16T11:18:02;18.20;99.90
14511;DHT22;7341;50.930;4.038;2022-10-16T11:20:44;18.30;99.90
14511;DHT22;7341;50.930;4.038;2022-10-16T11:23:17;18.40;99.90
14511;DHT22;7341;50.930;4.038;2022-10-16T11:25:48;18.50;99.90
14511;DHT22;7341;50.930;4.038;2022-10-16T11:28:17;18.50;99.90
14511;DHT22;7341;50.930;4.038;2022-10-16T11:30:50;18.60;99.90
14511;DHT22;7341;50.930;4.038;2022-10-16T11:33:32;18.60;99.90
14511;DHT22;7341;50.930;4.038;2022-10-16T11:36:06;18.70;99.90
14511;DHT22;7341;50.930;4.038;2022-10-16T11:38:43;18.50;99.90
14511;DHT22;7341;50.930;4.038;2022-10-16T11:41:18;18.50;99.90
14511;DHT22;7341;50.930;4.038;2022-10-16T11:44:03;18.70;99.90
14511;DHT22;7341;50.930;4.038;2022-10-16T11:46:36;18.80;99.90
14511;DHT22;7341;50.930;4.038;2022-10-16T11:49:10;18.90;99.90
14511;DHT22;7341;50.930;4.038;2022-10-16T11:51:40;18.90;99.90
14511;DHT22;7341;50.930;4.038;2022-10-16T11:54:24;18.90;99.90
14511;DHT22;7341;50.930;4.038;2022-10-16T11:57:01;19.10;99.90
14511;DHT22;7341;50.930;4.038;2022-10-16T11:59:32;19.10;99.90
14511;DHT22;7341;50.930;4.038;2022-10-16T12:02:33;19.10;99.90
14511;DHT22;7341;50.930;4.038;2022-10-16T12:05:18;19.20;99.90
14511;DHT22;7341;50.930;4.038;2022-10-16T12:07:51;19.30;99.90
14511;DHT22;7341;50.930;4.038;2022-10-16T12:10:22;19.10;99.90
14511;DHT22;7341;50.930;4.038;2022-10-16T12:12:53;19.00;99.90
14511;DHT22;7341;50.930;4.038;2022-10-16T12:15:26;18.90;99.90
14511;DHT22;7341;50.930;4.038;2022-10-16T12:17:55;19.00;99.90
14511;DHT22;7341;50.930;4.038;2022-10-16T12:20:26;19.00;99.90
14511;DHT22;7341;50.930;4.038;2022-10-16T12:22:54;19.20;99.90
14511;DHT22;7341;50.930;4.038;2022-10-16T12:25:30;19.40;99.90
14511;DHT22;7341;50.930;4.038;2022-10-16T12:28:00;19.60;99.90
14511;DHT22;7341;50.930;4.038;2022-10-16T12:30:29;19.70;99.90
14511;DHT22;7341;50.930;4.038;2022-10-16T12:32:59;19.70;99.90
14511;DHT22;7341;50.930;4.038;2022-10-16T12:35:29;19.80;99.90
14511;DHT22;7341;50.930;4.038;2022-10-16T12:38:08;19.60;99.90
14511;DHT22;7341;50.930;4.038;2022-10-16T12:40:39;19.50;99.90
14511;DHT22;7341;50.930;4.038;2022-10-16T12:43:13;19.30;99.90
14511;DHT22;7341;50.930;4.038;2022-10-16T12:45:59;19.30;99.90
14511;DHT22;7341;50.930;4.038;2022-10-16T12:48:28;19.10;99.90
14511;DHT22;7341;50.930;4.038;2022-10-16T12:50:55;19.10;99.90
14511;DHT22;7341;50.930;4.038;2022-10-16T12:53:24;19.10;99.90
14511;DHT22;7341;50.930;4.038;2022-10-16T12:55:58;19.30;99.90
14511;DHT22;7341;50.930;4.038;2022-10-16T12:58:38;19.40;99.90
14511;DHT22;7341;50.930;4.038;2022-10-16T13:01:19;19.40;99.90
14511;DHT22;7341;50.930;4.038;2022-10-16T13:04:13;19.30;99.90
14511;DHT22;7341;50.930;4.038;2022-10-16T13:06:49;19.40;99.90
14511;DHT22;7341;50.930;4.038;2022-10-16T13:09:27;19.70;99.90
14511;DHT22;7341;50.930;4.038;2022-10-16T13:12:13;20.00;99.90
14511;DHT22;7341;50.930;4.038;2022-10-16T13:15:00;20.00;99.90
14511;DHT22;7341;50.930;4.038;2022-10-16T13:17:40;19.80;99.90
14511;DHT22;7341;50.930;4.038;2022-10-16T13:20:18;19.90;99.90
14511;DHT22;7341;50.930;4.038;2022-10-16T13:22:55;19.70;99.90
14511;DHT22;7341;50.930;4.038;2022-10-16T13:25:36;19.70;99.90
14511;DHT22;7341;50.930;4.038;2022-10-16T13:28:08;19.90;99.90
14511;DHT22;7341;50.930;4.038;2022-10-16T13:30:39;20.00;99.90
14511;DHT22;7341;50.930;4.038;2022-10-16T13:33:13;20.30;99.90
14511;DHT22;7341;50.930;4.038;2022-10-16T13:35:48;19.90;99.90
14511;DHT22;7341;50.930;4.038;2022-10-16T13:38:20;19.80;99.90
14511;DHT22;7341;50.930;4.038;2022-10-16T13:40:52;19.80;99.90
14511;DHT22;7341;50.930;4.038;2022-10-16T13:43:22;20.00;99.90
14511;DHT22;7341;50.930;4.038;2022-10-16T13:45:54;20.20;99.90
14511;DHT22;7341;50.930;4.038;2022-10-16T13:48:21;20.20;99.90
14511;DHT22;7341;50.930;4.038;2022-10-16T13:51:00;20.20;99.90
14511;DHT22;7341;50.930;4.038;2022-10-16T13:53:30;20.30;99.90
14511;DHT22;7341;50.930;4.038;2022-10-16T13:56:02;20.40;99.90
14511;DHT22;7341;50.930;4.038;2022-10-16T13:58:30;20.20;99.90
14511;DHT22;7341;50.930;4.038;2022-10-16T14:01:11;19.90;99.90
14511;DHT22;7341;50.930;4.038;2022-10-16T14:03:42;20.00;99.90
14511;DHT22;7341;50.930;4.038;2022-10-16T14:06:14;20.00;99.90
14511;DHT22;7341;50.930;4.038;2022-10-16T14:08:48;20.10;99.90
14511;DHT22;7341;50.930;4.038;2022-10-16T14:11:23;20.20;99.90
14511;DHT22;7341;50.930;4.038;2022-10-16T14:13:51;20.40;99.90
14511;DHT22;7341;50.930;4.038;2022-10-16T14:16:23;20.40;99.90
14511;DHT22;7341;50.930;4.038;2022-10-16T14:18:56;20.60;99.90
14511;DHT22;7341;50.930;4.038;2022-10-16T14:21:28;20.50;99.90
14511;DHT22;7341;50.930;4.038;2022-10-16T14:23:56;20.50;99.90
14511;DHT22;7341;50.930;4.038;2022-10-16T14:26:25;20.70;99.90
14511;DHT22;7341;50.930;4.038;2022-10-16T14:29:08;20.90;99.90
14511;DHT22;7341;50.930;4.038;2022-10-16T14:31:36;21.00;99.90
14511;DHT22;7341;50.930;4.038;2022-10-16T14:36:50;20.50;99.90
14511;DHT22;7341;50.930;4.038;2022-10-16T14:39:20;20.30;99.90
14511;DHT22;7341;50.930;4.038;2022-10-16T14:41:50;20.40;99.90
14511;DHT22;7341;50.930;4.038;2022-10-16T14:44:18;20.50;99.90
14511;DHT22;7341;50.930;4.038;2022-10-16T14:46:46;20.50;99.90
14511;DHT22;7341;50.930;4.038;2022-10-16T14:49:17;20.50;99.90
14511;DHT22;7341;50.930;4.038;2022-10-16T14:51:45;20.60;99.90
14511;DHT22;7341;50.930;4.038;2022-10-16T14:54:18;20.10;99.90
14511;DHT22;7341;50.930;4.038;2022-10-16T14:56:52;20.00;99.90
14511;DHT22;7341;50.930;4.038;2022-10-16T14:59:23;20.10;99.90
14511;DHT22;7341;50.930;4.038;2022-10-16T15:01:51;20.00;99.90
14511;DHT22;7341;50.930;4.038;2022-10-16T15:04:18;20.30;99.90
14511;DHT22;7341;50.930;4.038;2022-10-16T15:06:46;20.30;99.90
14511;DHT22;7341;50.930;4.038;2022-10-16T15:09:13;20.40;99.90
14511;DHT22;7341;50.930;4.038;2022-10-16T15:11:43;20.50;99.90
14511;DHT22;7341;50.930;4.038;2022-10-16T15:14:12;20.60;99.90
14511;DHT22;7341;50.930;4.038;2022-10-16T15:16:39;20.50;99.90
14511;DHT22;7341;50.930;4.038;2022-10-16T15:19:06;20.60;99.90
14511;DHT22;7341;50.930;4.038;2022-10-16T15:21:35;20.60;99.90
14511;DHT22;7341;50.930;4.038;2022-10-16T15:24:09;20.60;99.90
14511;DHT22;7341;50.930;4.038;2022-10-16T15:26:40;20.60;99.90
14511;DHT22;7341;50.930;4.038;2022-10-16T15:29:08;20.50;99.90
14511;DHT22;7341;50.930;4.038;2022-10-16T15:31:36;20.30;99.90
14511;DHT22;7341;50.930;4.038;2022-10-16T15:34:04;20.30;99.90
14511;DHT22;7341;50.930;4.038;2022-10-16T15:36:33;20.30;99.90
14511;DHT22;7341;50.930;4.038;2022-10-16T15:39:02;20.20;99.90
14511;DHT22;7341;50.930;4.038;2022-10-16T15:41:29;20.20;99.90
14511;DHT22;7341;50.930;4.038;2022-10-16T15:43:57;20.10;99.90
14511;DHT22;7341;50.930;4.038;2022-10-16T15:46:25;20.00;99.90
14511;DHT22;7341;50.930;4.038;2022-10-16T15:48:56;19.90;99.90
14511;DHT22;7341;50.930;4.038;2022-10-16T15:51:25;19.90;99.90
14511;DHT22;7341;50.930;4.038;2022-10-16T15:53:53;19.90;99.90
14511;DHT22;7341;50.930;4.038;2022-10-16T15:56:22;19.90;99.90
14511;DHT22;7341;50.930;4.038;2022-10-16T15:58:51;19.80;99.90
14511;DHT22;7341;50.930;4.038;2022-10-16T16:01:18;20.00;99.90
14511;DHT22;7341;50.930;4.038;2022-10-16T16:03:47;19.80;99.90
14511;DHT22;7341;50.930;4.038;2022-10-16T16:06:14;19.80;99.90
14511;DHT22;7341;50.930;4.038;2022-10-16T16:08:41;19.60;99.90
14511;DHT22;7341;50.930;4.038;2022-10-16T16:11:09;19.60;99.90
14511;DHT22;7341;50.930;4.038;2022-10-16T16:13:38;19.60;99.90
14511;DHT22;7341;50.930;4.038;2022-10-16T16:16:06;19.60;99.90
14511;DHT22;7341;50.930;4.038;2022-10-16T16:18:35;19.60;99.90
14511;DHT22;7341;50.930;4.038;2022-10-16T16:21:05;19.60;99.90